createdAt,value
2022-10-31T00:01:26.984Z,99.90
2022-10-31T00:03:53.957Z,99.90
2022-10-31T00:06:20.661Z,99.90
2022-10-31T00:08:56.459Z,99.90
2022-10-31T00:11:23.854Z,99.90
2022-10-31T00:13:50.563Z,99.90
2022-10-31T00:16:19.238Z,99.90
2022-10-31T00:18:50.313Z,99.90
2022-10-31T00:21:17.371Z,99.90
2022-10-31T00:23:44.173Z,99.90
2022-10-31T00:26:11.030Z,99.90
2022-10-31T00:28:37.692Z,99.90
2022-10-31T00:31:07.148Z,99.90
2022-10-31T00:33:38.557Z,99.90
2022-10-31T00:36:07.032Z,99.90
2022-10-31T00:38:34.457Z,99.90
2022-10-31T00:41:01.139Z,99.90
2022-10-31T00:43:27.847Z,99.90
2022-10-31T00:45:54.885Z,99.90
2022-10-31T00:48:21.688Z,99.90
2022-10-31T00:50:48.370Z,99.90
2022-10-31T00:53:15.419Z,99.90
2022-10-31T00:55:42.068Z,99.90
2022-10-31T00:58:08.948Z,99.90
2022-10-31T01:00:35.830Z,99.90
2022-10-31T01:03:02.695Z,99.90
2022-10-31T01:05:29.569Z,99.90
2022-10-31T01:07:56.263Z,99.90
2022-10-31T01:10:23.557Z,99.90
2022-10-31T01:12:50.788Z,99.90
2022-10-31T01:15:23.723Z,99.90
2022-10-31T01:17:50.798Z,99.90
2022-10-31T01:20:18.533Z,99.90
2022-10-31T01:22:45.706Z,99.90
2022-10-31T01:25:12.618Z,99.90
2022-10-31T01:27:39.348Z,99.90
2022-10-31T01:30:07.043Z,99.90
2022-10-31T01:32:33.734Z,99.90
2022-10-31T01:35:00.466Z,99.90
2022-10-31T01:37:27.180Z,99.90
2022-10-31T01:39:53.799Z,99.90
2022-10-31T01:42:23.058Z,99.90
2022-10-31T01:44:54.491Z,99.90
2022-10-31T01:47:28.423Z,99.90
2022-10-31T01:50:00.375Z,99.90
2022-10-31T01:52:48.140Z,99.90
2022-10-31T01:55:34.363Z,99.90
2022-10-31T01:58:25.362Z,99.90
2022-10-31T02:01:03.271Z,99.90
2022-10-31T02:03:34.006Z,99.90
2022-10-31T02:06:01.098Z,99.90
2022-10-31T02:08:30.510Z,99.90
2022-10-31T02:11:02.622Z,99.90
2022-10-31T02:13:30.508Z,99.90
2022-10-31T02:15:59.364Z,99.90
2022-10-31T02:18:28.938Z,99.90
2022-10-31T02:21:21.819Z,99.90
2022-10-31T02:23:51.213Z,99.90
2022-10-31T02:26:44.337Z,99.90
2022-10-31T02:29:28.407Z,99.90
2022-10-31T02:32:04.050Z,99.90
2022-10-31T02:34:46.246Z,99.90
2022-10-31T02:37:15.021Z,99.90
2022-10-31T02:39:50.700Z,99.90
2022-10-31T02:42:44.794Z,99.90
2022-10-31T02:45:43.438Z,99.90
2022-10-31T02:48:16.668Z,99.90
2022-10-31T02:50:53.635Z,99.90
2022-10-31T02:53:20.315Z,99.90
2022-10-31T02:56:10.056Z,99.90
2022-10-31T02:58:41.241Z,99.90
2022-10-31T03:01:23.726Z,99.90
2022-10-31T03:04:15.650Z,99.90
2022-10-31T03:07:00.659Z,99.90
2022-10-31T03:10:12.053Z,99.90
2022-10-31T03:13:06.446Z,99.90
2022-10-31T03:15:36.114Z,99.90
2022-10-31T03:18:10.756Z,99.90
2022-10-31T03:20:44.703Z,99.90
2022-10-31T03:23:15.746Z,99.90
2022-10-31T03:25:44.235Z,99.90
2022-10-31T03:28:16.025Z,99.90
2022-10-31T03:30:45.265Z,99.90
2022-10-31T03:33:17.638Z,99.90
2022-10-31T03:35:47.400Z,99.90
2022-10-31T03:38:15.684Z,99.90
2022-10-31T03:40:45.524Z,99.90
2022-10-31T03:43:17.615Z,99.90
2022-10-31T03:45:48.387Z,99.90
2022-10-31T03:48:17.208Z,99.90
2022-10-31T03:51:01.786Z,99.90
2022-10-31T03:53:36.157Z,99.90
2022-10-31T03:56:11.579Z,99.90
2022-10-31T03:58:46.206Z,99.90
2022-10-31T04:01:16.810Z,99.90
2022-10-31T04:03:44.581Z,99.90
2022-10-31T04:06:15.470Z,99.90
2022-10-31T04:08:56.778Z,99.90
2022-10-31T04:11:28.397Z,99.90
2022-10-31T04:13:57.322Z,99.90
2022-10-31T04:16:25.823Z,99.90
2022-10-31T04:18:52.913Z,99.90
2022-10-31T04:21:19.663Z,99.90
2022-10-31T04:23:46.358Z,99.90
2022-10-31T04:26:13.435Z,99.90
2022-10-31T04:28:40.175Z,99.90
2022-10-31T04:31:06.917Z,99.90
2022-10-31T04:33:33.555Z,99.90
2022-10-31T04:36:00.232Z,99.90
2022-10-31T04:38:26.911Z,99.90
2022-10-31T04:40:53.682Z,99.90
2022-10-31T04:45:52.142Z,99.90
2022-10-31T04:48:18.853Z,99.90
2022-10-31T04:50:45.906Z,99.90
2022-10-31T04:53:12.581Z,99.90
2022-10-31T04:55:39.326Z,99.90
2022-10-31T04:58:06.330Z,99.90
2022-10-31T05:00:33.173Z,99.90
2022-10-31T05:03:00.500Z,99.90
2022-10-31T05:05:30.874Z,99.90
2022-10-31T05:07:57.561Z,99.90
2022-10-31T05:10:26.935Z,99.90
2022-10-31T05:12:59.194Z,99.90
2022-10-31T05:15:27.829Z,99.90
2022-10-31T05:17:55.426Z,99.90
2022-10-31T05:20:25.137Z,99.90
2022-10-31T05:22:54.463Z,99.90
2022-10-31T05:25:23.037Z,99.90
2022-10-31T05:27:51.806Z,99.90
2022-10-31T05:30:24.429Z,99.90
2022-10-31T05:32:52.370Z,99.90
2022-10-31T05:35:21.718Z,99.90
2022-10-31T05:37:48.674Z,99.90
2022-10-31T05:40:17.112Z,99.90
2022-10-31T05:42:44.698Z,99.90
2022-10-31T05:45:16.492Z,99.90
2022-10-31T05:47:43.602Z,99.90
2022-10-31T05:50:10.865Z,99.90
2022-10-31T05:52:37.716Z,99.90
2022-10-31T05:55:05.067Z,99.90
2022-10-31T05:57:33.548Z,99.90
2022-10-31T06:00:00.758Z,99.90
2022-10-31T06:02:27.796Z,99.90
2022-10-31T06:04:54.596Z,99.90
2022-10-31T06:07:21.340Z,99.90
2022-10-31T06:09:48.102Z,99.90
2022-10-31T06:12:14.813Z,99.90
2022-10-31T06:14:41.515Z,99.90
2022-10-31T06:17:08.304Z,99.90
2022-10-31T06:19:34.959Z,99.90
2022-10-31T06:22:01.673Z,99.90
2022-10-31T06:24:28.478Z,99.90
2022-10-31T06:26:55.229Z,99.90
2022-10-31T06:29:22.085Z,99.90
2022-10-31T06:31:48.792Z,99.90
2022-10-31T06:34:15.474Z,99.90
2022-10-31T06:36:42.219Z,99.90
2022-10-31T06:39:10.282Z,99.90
2022-10-31T06:41:37.586Z,99.90
2022-10-31T06:44:06.585Z,99.90
2022-10-31T06:46:35.638Z,99.90
2022-10-31T06:49:02.335Z,99.90
2022-10-31T06:51:28.946Z,99.90
2022-10-31T06:53:55.644Z,99.90
2022-10-31T06:56:22.338Z,99.90
2022-10-31T06:58:49.074Z,99.90
2022-10-31T07:01:15.924Z,99.90
2022-10-31T07:03:42.747Z,99.90
2022-10-31T07:06:09.390Z,99.90
2022-10-31T07:08:36.052Z,99.90
2022-10-31T07:11:02.753Z,99.90
2022-10-31T07:13:29.500Z,99.90
2022-10-31T07:16:02.491Z,99.90
2022-10-31T07:18:29.610Z,99.90
2022-10-31T07:20:56.295Z,99.90
2022-10-31T07:23:23.350Z,99.90
2022-10-31T07:25:55.074Z,99.90
2022-10-31T07:28:21.750Z,99.90
2022-10-31T07:30:56.617Z,99.90
2022-10-31T07:33:24.337Z,99.90
2022-10-31T07:35:51.028Z,99.90
2022-10-31T07:38:17.740Z,99.90
2022-10-31T07:40:44.705Z,99.90
2022-10-31T07:43:14.529Z,99.90
2022-10-31T07:45:41.771Z,99.90
2022-10-31T07:48:08.536Z,99.90
2022-10-31T07:50:35.579Z,99.90
2022-10-31T07:53:05.779Z,99.90
2022-10-31T07:55:33.342Z,99.90
2022-10-31T07:58:08.188Z,99.90
2022-10-31T08:00:36.714Z,99.90
2022-10-31T08:03:06.548Z,99.90
2022-10-31T08:05:34.227Z,99.90
2022-10-31T08:08:01.522Z,99.90
2022-10-31T08:10:28.883Z,99.90
2022-10-31T08:13:11.045Z,99.90
2022-10-31T08:15:40.338Z,99.90
2022-10-31T08:18:10.709Z,99.90
2022-10-31T08:20:37.449Z,99.90
2022-10-31T08:23:06.078Z,99.90
2022-10-31T08:25:38.365Z,99.90
2022-10-31T08:28:06.934Z,99.90
2022-10-31T08:30:36.221Z,99.90
2022-10-31T08:33:06.064Z,99.90
2022-10-31T08:35:33.549Z,99.90
2022-10-31T08:38:00.821Z,99.90
2022-10-31T08:40:29.603Z,99.90
2022-10-31T08:42:58.484Z,99.90
2022-10-31T08:45:25.732Z,99.90
2022-10-31T08:47:52.523Z,99.90
2022-10-31T08:50:19.626Z,99.90
2022-10-31T08:53:04.281Z,99.90
2022-10-31T08:55:33.550Z,99.90
2022-10-31T08:58:00.754Z,99.90
2022-10-31T09:00:27.740Z,99.90
2022-10-31T09:03:02.670Z,99.90
2022-10-31T09:05:29.901Z,99.90
2022-10-31T09:08:00.950Z,99.90
2022-10-31T09:10:29.635Z,99.90
2022-10-31T09:13:01.855Z,99.90
2022-10-31T09:15:29.359Z,99.90
2022-10-31T09:17:56.395Z,99.90
2022-10-31T09:20:23.381Z,99.90
2022-10-31T09:22:57.727Z,99.90
2022-10-31T09:25:24.531Z,99.90
2022-10-31T09:27:51.389Z,99.90
2022-10-31T09:30:18.549Z,99.90
2022-10-31T09:32:45.314Z,99.90
2022-10-31T09:37:38.748Z,99.90
2022-10-31T09:40:05.829Z,99.90
2022-10-31T09:42:54.153Z,99.90
2022-10-31T09:45:40.036Z,99.90
2022-10-31T09:48:25.489Z,99.90
2022-10-31T09:51:00.408Z,99.90
2022-10-31T09:53:44.893Z,99.90
2022-10-31T09:56:16.387Z,99.90
2022-10-31T09:58:46.676Z,99.90
2022-10-31T10:01:42.526Z,99.90
2022-10-31T10:04:27.843Z,99.90
2022-10-31T10:06:54.653Z,99.90
2022-10-31T10:09:25.898Z,99.90
2022-10-31T10:12:10.614Z,99.90
2022-10-31T10:15:01.806Z,99.90
2022-10-31T10:18:01.653Z,99.90
2022-10-31T10:20:57.711Z,99.90
2022-10-31T10:23:30.123Z,99.90
2022-10-31T10:26:14.831Z,99.90
2022-10-31T10:28:44.869Z,99.90
2022-10-31T10:31:25.702Z,99.90
2022-10-31T10:33:52.377Z,99.90
2022-10-31T10:36:43.729Z,99.90
2022-10-31T10:39:21.503Z,99.90
2022-10-31T10:42:08.442Z,99.90
2022-10-31T10:44:59.713Z,99.90
2022-10-31T10:47:41.601Z,99.90
2022-10-31T10:50:21.253Z,99.90
2022-10-31T10:53:01.704Z,99.90
2022-10-31T10:55:59.337Z,99.90
2022-10-31T10:58:26.031Z,99.90
2022-10-31T11:00:56.122Z,99.90
2022-10-31T11:03:22.912Z,99.90
2022-10-31T11:05:59.316Z,98.60
2022-10-31T11:08:28.391Z,95.30
2022-10-31T11:11:26.715Z,92.00
2022-10-31T11:14:06.466Z,89.00
2022-10-31T11:16:41.269Z,81.40
2022-10-31T11:19:28.880Z,78.60
2022-10-31T11:22:06.202Z,73.60
2022-10-31T11:24:40.209Z,71.00
2022-10-31T11:27:23.228Z,69.10
2022-10-31T11:29:58.177Z,65.00
2022-10-31T11:32:28.409Z,63.30
2022-10-31T11:34:58.181Z,59.90
2022-10-31T11:37:31.161Z,59.70
2022-10-31T11:40:01.461Z,61.30
2022-10-31T11:42:36.452Z,65.50
2022-10-31T11:45:14.757Z,67.30
2022-10-31T11:47:48.579Z,70.40
2022-10-31T11:50:42.421Z,72.60
2022-10-31T11:53:18.513Z,76.60
2022-10-31T11:55:47.002Z,79.80
2022-10-31T11:58:25.241Z,82.80
2022-10-31T12:00:55.550Z,79.90
2022-10-31T12:03:33.233Z,76.60
2022-10-31T12:06:06.175Z,73.90
2022-10-31T12:08:36.547Z,69.60
2022-10-31T12:11:18.554Z,69.30
2022-10-31T12:14:04.058Z,72.60
2022-10-31T12:17:00.938Z,76.00
2022-10-31T12:19:50.055Z,78.20
2022-10-31T12:22:19.484Z,78.90
2022-10-31T12:25:08.764Z,72.80
2022-10-31T12:27:48.408Z,66.90
2022-10-31T12:30:42.029Z,62.00
2022-10-31T12:33:36.286Z,56.50
2022-10-31T12:36:21.646Z,57.50
2022-10-31T12:39:14.474Z,53.60
2022-10-31T12:42:07.436Z,49.50
2022-10-31T12:44:55.117Z,48.60
2022-10-31T12:47:37.095Z,49.80
2022-10-31T12:50:25.733Z,49.10
2022-10-31T12:53:01.607Z,47.30
2022-10-31T12:56:06.556Z,46.30
2022-10-31T12:58:36.477Z,46.40
2022-10-31T13:01:33.563Z,45.30
2022-10-31T13:04:20.689Z,47.60
2022-10-31T13:06:56.814Z,52.60
2022-10-31T13:10:03.944Z,53.30
2022-10-31T13:12:36.489Z,53.00
2022-10-31T13:15:14.517Z,52.90
2022-10-31T13:17:49.742Z,55.30
2022-10-31T13:20:35.110Z,55.60
2022-10-31T13:23:49.732Z,54.60
2022-10-31T13:26:37.847Z,52.00
2022-10-31T13:29:34.568Z,49.00
2022-10-31T13:32:05.786Z,49.10
2022-10-31T13:34:42.909Z,47.50
2022-10-31T13:37:32.118Z,47.20
2022-10-31T13:40:10.444Z,47.90
2022-10-31T13:42:42.882Z,46.10
2022-10-31T13:45:19.036Z,47.00
2022-10-31T13:48:01.258Z,46.00
2022-10-31T13:50:30.927Z,44.40
2022-10-31T13:53:37.301Z,44.60
2022-10-31T13:56:09.693Z,45.00
2022-10-31T13:58:37.096Z,44.60
2022-10-31T14:01:06.693Z,44.30
2022-10-31T14:04:04.574Z,45.20
2022-10-31T14:06:35.083Z,44.60
2022-10-31T14:09:02.835Z,43.80
2022-10-31T14:11:34.500Z,44.00
2022-10-31T14:14:04.077Z,44.90
2022-10-31T14:16:32.845Z,46.10
2022-10-31T14:19:06.104Z,48.40
2022-10-31T14:21:40.835Z,52.00
2022-10-31T14:24:33.083Z,55.90
2022-10-31T14:27:02.950Z,57.70
2022-10-31T14:29:32.349Z,59.30
2022-10-31T14:31:59.322Z,62.00
2022-10-31T14:34:28.045Z,65.90
2022-10-31T14:37:13.929Z,68.60
2022-10-31T14:40:05.563Z,69.70
2022-10-31T14:43:09.992Z,72.60
2022-10-31T14:45:45.638Z,75.90
2022-10-31T14:48:55.111Z,75.90
2022-10-31T14:51:36.015Z,75.30
2022-10-31T14:54:05.395Z,75.90
2022-10-31T14:56:35.382Z,81.80
2022-10-31T14:59:07.571Z,84.40
2022-10-31T15:01:39.717Z,86.30
2022-10-31T15:04:24.670Z,89.10
2022-10-31T15:07:20.343Z,90.70
2022-10-31T15:10:07.296Z,91.60
2022-10-31T15:12:39.376Z,92.20
2022-10-31T15:15:19.810Z,90.30
2022-10-31T15:17:55.176Z,91.60
2022-10-31T15:20:24.151Z,93.50
2022-10-31T15:22:51.555Z,93.30
2022-10-31T15:25:24.366Z,93.90
2022-10-31T15:27:52.190Z,94.50
2022-10-31T15:30:27.591Z,94.40
2022-10-31T15:32:58.686Z,94.10
2022-10-31T15:35:31.333Z,94.10
2022-10-31T15:38:00.530Z,95.80
2022-10-31T15:40:29.090Z,96.30
2022-10-31T15:43:05.490Z,96.60
2022-10-31T15:45:32.680Z,97.10
2022-10-31T15:48:12.431Z,98.10
2022-10-31T15:50:54.477Z,98.70
2022-10-31T15:53:23.386Z,99.60
2022-10-31T15:55:59.078Z,99.90
2022-10-31T15:58:26.835Z,99.90
2022-10-31T16:01:19.347Z,99.90
2022-10-31T16:03:57.872Z,99.90
2022-10-31T16:06:25.260Z,99.90
2022-10-31T16:08:52.955Z,99.90
2022-10-31T16:11:34.654Z,99.90
2022-10-31T16:14:10.690Z,99.90
2022-10-31T16:16:53.479Z,99.90
2022-10-31T16:19:34.678Z,99.90
2022-10-31T16:22:13.092Z,99.90
2022-10-31T16:25:16.252Z,99.90
2022-10-31T16:27:54.269Z,99.90
2022-10-31T16:30:30.585Z,99.90
2022-10-31T16:33:00.857Z,99.90
2022-10-31T16:35:38.608Z,99.90
2022-10-31T16:38:06.455Z,99.90
2022-10-31T16:40:33.917Z,99.90
2022-10-31T16:43:01.586Z,99.90
2022-10-31T16:45:31.048Z,99.90
2022-10-31T16:48:12.375Z,99.90
2022-10-31T16:50:39.409Z,99.90
2022-10-31T16:53:13.761Z,99.90
2022-10-31T16:55:57.420Z,99.90
2022-10-31T16:58:26.845Z,99.90
2022-10-31T17:00:54.171Z,99.90
2022-10-31T17:03:21.332Z,99.90
2022-10-31T17:05:48.140Z,99.90
2022-10-31T17:08:14.981Z,99.90
2022-10-31T17:10:43.725Z,99.90
2022-10-31T17:13:16.593Z,99.90
2022-10-31T17:15:46.653Z,99.90
2022-10-31T17:18:14.918Z,99.90
2022-10-31T17:20:43.033Z,99.90
2022-10-31T17:23:14.067Z,99.90
2022-10-31T17:25:41.151Z,99.90
2022-10-31T17:28:11.447Z,99.90
2022-10-31T17:30:38.309Z,99.90
2022-10-31T17:33:05.061Z,99.90
2022-10-31T17:35:31.734Z,99.90
2022-10-31T17:37:58.577Z,99.90
2022-10-31T17:40:25.297Z,99.90
2022-10-31T17:42:56.855Z,99.90
2022-10-31T17:45:25.996Z,99.90
2022-10-31T17:47:53.869Z,99.90
2022-10-31T17:50:23.438Z,99.90
2022-10-31T17:52:50.493Z,99.90
2022-10-31T17:55:17.890Z,99.90
2022-10-31T17:57:45.726Z,99.90
2022-10-31T18:00:15.883Z,99.90
2022-10-31T18:02:42.799Z,99.90
2022-10-31T18:05:10.067Z,99.90
2022-10-31T18:07:36.740Z,99.90
2022-10-31T18:10:03.615Z,99.90
2022-10-31T18:12:32.270Z,99.90
2022-10-31T18:14:58.957Z,99.90
2022-10-31T18:17:25.938Z,99.90
2022-10-31T18:19:52.646Z,99.90
2022-10-31T18:22:19.510Z,99.90
2022-10-31T18:24:46.169Z,99.90
2022-10-31T18:27:12.786Z,99.90
2022-10-31T18:29:39.455Z,99.90
2022-10-31T18:32:09.518Z,99.90
2022-10-31T18:34:36.725Z,99.90
2022-10-31T18:37:03.709Z,99.90
2022-10-31T18:39:30.488Z,99.90
2022-10-31T18:41:57.362Z,99.90
2022-10-31T18:44:24.609Z,99.90
2022-10-31T18:46:51.383Z,99.90
2022-10-31T18:49:22.554Z,99.90
2022-10-31T18:51:50.570Z,99.90
2022-10-31T18:54:17.430Z,99.90
2022-10-31T18:56:44.477Z,99.90
2022-10-31T18:59:12.244Z,99.90
2022-10-31T19:01:39.859Z,99.90
2022-10-31T19:04:07.196Z,99.90
2022-10-31T19:06:34.007Z,99.90
2022-10-31T19:09:04.417Z,99.90
2022-10-31T19:11:34.981Z,99.90
2022-10-31T19:14:02.389Z,99.90
2022-10-31T19:16:29.483Z,99.90
2022-10-31T19:18:57.609Z,99.90
2022-10-31T19:21:24.599Z,99.90
2022-10-31T19:23:53.473Z,99.90
2022-10-31T19:26:20.651Z,99.90
2022-10-31T19:28:47.670Z,99.90
2022-10-31T19:31:14.514Z,99.90
2022-10-31T19:33:41.255Z,99.90
2022-10-31T19:36:10.658Z,99.90
2022-10-31T19:38:39.874Z,99.90
2022-10-31T19:41:15.502Z,99.90
2022-10-31T19:43:42.358Z,99.90
2022-10-31T19:46:22.433Z,99.90
2022-10-31T19:48:59.338Z,99.90
2022-10-31T19:51:26.020Z,99.90
2022-10-31T19:53:54.021Z,99.90
2022-10-31T19:56:22.898Z,99.90
2022-10-31T19:58:49.751Z,99.90
2022-10-31T20:01:21.906Z,99.90
2022-10-31T20:03:49.942Z,99.90
2022-10-31T20:06:24.278Z,99.90
2022-10-31T20:08:52.319Z,99.90
2022-10-31T20:11:19.463Z,99.90
2022-10-31T20:13:46.187Z,99.90
2022-10-31T20:16:15.025Z,99.90
2022-10-31T20:18:42.732Z,99.90
2022-10-31T20:21:18.467Z,99.90
2022-10-31T20:23:47.371Z,99.90
2022-10-31T20:26:19.698Z,99.90
2022-10-31T20:28:46.726Z,99.90
2022-10-31T20:31:17.508Z,99.90
2022-10-31T20:33:44.791Z,99.90
2022-10-31T20:36:14.510Z,99.90
2022-10-31T20:38:42.251Z,99.90
2022-10-31T20:41:10.521Z,99.90
2022-10-31T20:43:38.288Z,99.90
2022-10-31T20:46:07.669Z,99.90
2022-10-31T20:48:34.670Z,99.90
2022-10-31T20:51:04.484Z,99.90
2022-10-31T20:53:31.624Z,99.90
2022-10-31T20:56:13.364Z,99.90
2022-10-31T20:58:41.432Z,99.90
2022-10-31T21:01:14.396Z,99.90
2022-10-31T21:03:41.680Z,99.90
2022-10-31T21:06:09.194Z,99.90
2022-10-31T21:08:36.843Z,99.90
2022-10-31T21:11:09.826Z,99.90
2022-10-31T21:13:41.962Z,99.90
2022-10-31T21:16:12.070Z,99.90
2022-10-31T21:18:41.045Z,99.90
2022-10-31T21:21:13.740Z,99.90
2022-10-31T21:23:41.707Z,99.90
2022-10-31T21:26:11.932Z,99.90
2022-10-31T21:28:38.868Z,99.90
2022-10-31T21:31:08.260Z,99.90
2022-10-31T21:33:35.720Z,99.90
2022-10-31T21:36:03.582Z,99.90
2022-10-31T21:38:30.429Z,99.90
2022-10-31T21:41:09.002Z,99.90
2022-10-31T21:43:37.340Z,99.90
2022-10-31T21:46:05.908Z,99.90
2022-10-31T21:48:33.181Z,99.90
2022-10-31T21:51:09.029Z,99.90
2022-10-31T21:53:55.585Z,99.90
2022-10-31T21:56:23.850Z,99.90
2022-10-31T21:58:51.861Z,99.90
2022-10-31T22:01:19.478Z,99.90
2022-10-31T22:03:46.731Z,99.90
2022-10-31T22:06:14.334Z,99.90
2022-10-31T22:08:41.332Z,99.90
2022-10-31T22:11:10.677Z,99.90
2022-10-31T22:13:37.574Z,99.90
2022-10-31T22:16:19.158Z,99.90
2022-10-31T22:18:46.515Z,99.90
2022-10-31T22:21:18.983Z,99.90
2022-10-31T22:23:50.522Z,99.90
2022-10-31T22:26:17.653Z,99.90
2022-10-31T22:28:47.802Z,99.90
2022-10-31T22:31:19.717Z,99.90
2022-10-31T22:33:47.364Z,99.90
2022-10-31T22:36:17.461Z,99.90
2022-10-31T22:38:45.355Z,99.90
2022-10-31T22:41:16.781Z,99.90
2022-10-31T22:43:43.763Z,99.90
2022-10-31T22:46:13.507Z,99.90
2022-10-31T22:48:44.085Z,99.90
2022-10-31T22:51:19.688Z,99.90
2022-10-31T22:53:46.534Z,99.90
2022-10-31T22:56:16.868Z,99.90
2022-10-31T22:58:44.074Z,99.90
2022-10-31T23:01:19.445Z,99.90
2022-10-31T23:03:46.856Z,99.90
2022-10-31T23:06:25.985Z,99.90
2022-10-31T23:08:53.354Z,99.90
2022-10-31T23:11:22.772Z,99.90
2022-10-31T23:14:15.907Z,99.90
2022-10-31T23:16:54.124Z,99.90
2022-10-31T23:19:27.814Z,99.90
2022-10-31T23:22:00.127Z,99.90
2022-10-31T23:24:41.521Z,99.90
2022-10-31T23:27:22.633Z,99.90
2022-10-31T23:29:59.731Z,99.90
2022-10-31T23:32:35.749Z,99.90
2022-10-31T23:35:05.400Z,99.90
2022-10-31T23:37:34.058Z,99.90
2022-10-31T23:40:00.950Z,99.90
2022-10-31T23:42:28.685Z,99.90
2022-10-31T23:44:55.549Z,99.90
2022-10-31T23:47:22.685Z,99.90
2022-10-31T23:49:49.689Z,99.90
2022-10-31T23:52:16.993Z,99.90
2022-10-31T23:54:43.688Z,99.90
2022-10-31T23:57:12.119Z,99.90
2022-10-31T23:59:38.863Z,99.90
